Time;durP1;ratioP1;P1;durP2;ratioP2;P2;SDS_P1;SDS_P2;PMS_P1;PMS_P2;Temp;Humidity;BMP_temperature;BMP_pressure;BME280_temperature;BME280_humidity;BME280_pressure;Samples;Min_cycle;Max_cycle;Signal;HPM_P1;HPM_P2
2022/04/04 00:02:17;;;;;;;4.65;3.65;;;4.80;99.90;;;;;;5094290;28;20194;-45
2022/04/04 00:04:44;;;;;;;5.20;3.95;;;4.80;99.90;;;;;;5075789;28;20219;-44
2022/04/04 00:07:11;;;;;;;4.80;4.20;;;4.80;99.90;;;;;;5094571;28;20198;-44
2022/04/04 00:09:37;;;;;;;7.00;4.38;;;4.80;99.90;;;;;;5093387;28;20681;-45
2022/04/04 00:12:05;;;;;;;4.85;4.43;;;4.80;99.90;;;;;;5094215;28;20199;-44
2022/04/04 00:14:31;;;;;;;5.97;4.10;;;4.80;99.90;;;;;;5094051;28;20581;-44
2022/04/04 00:17:00;;;;;;;4.55;4.07;;;4.80;99.90;;;;;;5093907;28;20187;-45
2022/04/04 00:19:27;;;;;;;5.65;4.60;;;4.80;99.90;;;;;;5093696;28;20229;-44
2022/04/04 00:21:54;;;;;;;4.75;4.00;;;4.80;99.90;;;;;;5094425;28;20199;-44
2022/04/04 00:24:21;;;;;;;5.55;4.40;;;4.80;99.90;;;;;;5093748;28;20694;-44
2022/04/04 00:26:47;;;;;;;5.50;3.92;;;4.80;99.90;;;;;;5093817;28;20317;-44
2022/04/04 00:29:14;;;;;;;4.10;3.70;;;4.80;99.90;;;;;;5075293;28;20245;-44
2022/04/04 00:31:41;;;;;;;4.57;3.90;;;4.80;99.90;;;;;;5093805;28;20195;-44
2022/04/04 00:34:09;;;;;;;5.80;4.15;;;4.80;99.90;;;;;;5094087;28;20583;-44
2022/04/04 00:36:36;;;;;;;5.10;4.60;;;4.80;99.90;;;;;;5095224;28;20209;-44
2022/04/04 00:39:03;;;;;;;4.78;3.90;;;4.80;99.90;;;;;;5078709;28;20256;-44
2022/04/04 00:41:30;;;;;;;4.45;3.58;;;4.80;99.90;;;;;;5096600;28;20209;-44
2022/04/04 00:43:57;;;;;;;7.35;4.55;;;4.80;99.90;;;;;;5095373;28;20265;-44
2022/04/04 00:46:23;;;;;;;5.90;4.10;;;4.80;99.90;;;;;;5094216;28;20221;-44
2022/04/04 00:48:50;;;;;;;4.22;3.78;;;4.80;99.90;;;;;;5093788;28;20194;-45
2022/04/04 00:51:18;;;;;;;5.00;4.50;;;4.80;99.90;;;;;;5093330;28;20205;-44
2022/04/04 00:53:45;;;;;;;6.18;4.88;;;4.80;99.90;;;;;;5092896;28;20569;-45
2022/04/04 00:56:12;;;;;;;5.13;4.25;;;4.80;99.90;;;;;;5093128;28;20195;-44
2022/04/04 00:58:39;;;;;;;5.57;5.07;;;4.80;99.90;;;;;;5092758;28;20663;-45
2022/04/04 01:01:07;;;;;;;6.72;4.82;;;4.80;99.90;;;;;;5093067;28;20200;-44
2022/04/04 01:03:34;;;;;;;6.80;4.90;;;4.90;99.90;;;;;;5093194;28;20212;-44
2022/04/04 01:06:02;;;;;;;5.20;4.70;;;4.90;99.90;;;;;;5092869;28;20222;-44
2022/04/04 01:08:31;;;;;;;9.32;4.75;;;4.80;99.90;;;;;;5092847;28;20591;-44
2022/04/04 01:10:58;;;;;;;5.60;4.10;;;4.80;99.90;;;;;;5093003;28;20732;-45
2022/04/04 01:13:24;;;;;;;5.10;4.63;;;4.80;99.90;;;;;;5093385;28;20205;-44
2022/04/04 01:15:51;;;;;;;5.88;4.60;;;4.80;99.90;;;;;;5092676;28;20221;-44
2022/04/04 01:18:18;;;;;;;6.03;4.75;;;4.80;99.90;;;;;;5092679;28;20198;-44
2022/04/04 01:20:44;;;;;;;5.63;4.95;;;4.80;99.90;;;;;;5092622;28;20199;-44
2022/04/04 01:23:13;;;;;;;5.15;4.60;;;4.70;99.90;;;;;;5093185;28;20195;-44
2022/04/04 01:25:41;;;;;;;5.43;4.68;;;4.70;99.90;;;;;;5092350;28;20755;-44
2022/04/04 01:28:08;;;;;;;5.25;4.75;;;4.70;99.90;;;;;;5092582;28;20191;-44
2022/04/04 01:30:35;;;;;;;6.47;4.95;;;4.60;99.90;;;;;;5092139;28;20202;-44
2022/04/04 01:33:02;;;;;;;6.57;4.93;;;4.60;99.90;;;;;;5092709;28;20290;-44
2022/04/04 01:35:29;;;;;;;5.70;5.10;;;4.60;99.90;;;;;;5092545;28;20238;-44
2022/04/04 01:37:56;;;;;;;6.07;4.90;;;4.60;99.90;;;;;;5092590;28;20218;-44
2022/04/04 01:40:23;;;;;;;6.07;5.10;;;4.50;99.90;;;;;;5092533;28;20217;-44
2022/04/04 01:42:53;;;;;;;6.75;5.35;;;4.50;99.90;;;;;;5077037;28;20198;-44
2022/04/04 01:46:23;;;;;;;7.38;5.35;;;4.50;99.90;;;;;;5096658;28;20698;-44
2022/04/04 01:48:09;;;;;;;6.45;5.25;;;4.50;99.90;;;;;;5078396;28;20209;-44
2022/04/04 01:50:36;;;;;;;7.20;5.32;;;4.40;99.90;;;;;;5096554;28;20582;-44
2022/04/04 01:55:44;;;;;;;7.82;5.70;;;4.40;99.90;;;;;;5095397;28;20280;-44
2022/04/04 01:58:11;;;;;;;6.05;5.18;;;4.40;99.90;;;;;;5096658;28;20194;-44
2022/04/04 02:00:38;;;;;;;6.40;5.47;;;4.40;99.90;;;;;;5095992;28;20211;-44
2022/04/04 02:03:05;;;;;;;6.68;5.60;;;4.40;99.90;;;;;;5096443;28;20202;-44
2022/04/04 02:05:31;;;;;;;7.38;5.72;;;4.30;99.90;;;;;;5096240;28;20219;-44
2022/04/04 02:07:58;;;;;;;7.75;5.90;;;4.30;99.90;;;;;;5096778;28;20202;-44
2022/04/04 02:10:25;;;;;;;7.47;5.85;;;4.30;99.90;;;;;;5096307;28;20224;-44
2022/04/04 02:12:52;;;;;;;6.80;6.07;;;4.10;99.90;;;;;;5096486;28;20240;-44
2022/04/04 02:15:20;;;;;;;12.65;6.55;;;4.30;99.90;;;;;;5096326;28;20280;-44
2022/04/04 02:17:47;;;;;;;7.00;5.85;;;4.30;99.90;;;;;;5096649;28;20191;-43
2022/04/04 02:20:14;;;;;;;7.70;5.88;;;4.30;99.90;;;;;;5077682;28;20663;-45
2022/04/04 02:22:41;;;;;;;6.15;5.55;;;4.30;99.90;;;;;;5095956;28;20194;-45
2022/04/04 02:25:08;;;;;;;6.25;5.63;;;4.30;99.90;;;;;;5095837;28;20233;-45
2022/04/04 02:27:35;;;;;;;8.30;5.78;;;4.30;99.90;;;;;;5095914;28;20404;-44
2022/04/04 02:30:02;;;;;;;7.85;5.78;;;4.30;99.90;;;;;;5095212;28;20194;-44
2022/04/04 02:32:31;;;;;;;11.00;8.07;;;4.30;99.90;;;;;;5096113;28;20199;-44
2022/04/04 02:34:58;;;;;;;9.43;5.95;;;4.30;99.90;;;;;;5095813;28;20560;-44
2022/04/04 02:37:24;;;;;;;9.80;6.45;;;4.20;99.90;;;;;;5095495;28;20201;-44
2022/04/04 02:39:51;;;;;;;6.97;6.28;;;4.20;99.90;;;;;;5095346;28;20273;-44
2022/04/04 02:42:17;;;;;;;11.43;6.60;;;4.20;99.90;;;;;;5095695;28;20202;-44
2022/04/04 02:44:45;;;;;;;10.20;6.20;;;4.20;99.90;;;;;;5077211;28;20225;-44
2022/04/04 02:47:12;;;;;;;7.70;6.60;;;4.20;99.90;;;;;;5095401;28;20295;-44
2022/04/04 02:49:40;;;;;;;7.40;6.60;;;4.20;99.90;;;;;;5095390;28;20199;-44
2022/04/04 02:52:07;;;;;;;8.02;6.05;;;4.10;99.90;;;;;;5095949;28;20194;-44
2022/04/04 02:54:34;;;;;;;8.00;6.55;;;4.10;99.90;;;;;;5095380;28;20219;-44
2022/04/04 02:57:00;;;;;;;9.07;6.78;;;4.10;99.90;;;;;;5095343;28;20190;-45
2022/04/04 02:59:27;;;;;;;11.37;7.17;;;4.10;99.90;;;;;;5095359;28;20219;-45
2022/04/04 03:01:53;;;;;;;8.30;6.32;;;4.10;99.90;;;;;;5095441;28;20539;-44
2022/04/04 03:04:20;;;;;;;6.50;5.78;;;4.10;99.90;;;;;;5077014;28;20222;-44
2022/04/04 03:06:48;;;;;;;8.02;6.53;;;4.10;99.90;;;;;;5095435;28;20218;-44
2022/04/04 03:09:15;;;;;;;9.57;6.40;;;4.10;99.90;;;;;;5095349;28;20195;-44
2022/04/04 03:11:41;;;;;;;8.07;6.93;;;4.10;99.90;;;;;;5095627;28;20646;-44
2022/04/04 03:14:08;;;;;;;8.15;6.72;;;4.00;99.90;;;;;;5097107;28;20215;-44
2022/04/04 03:16:35;;;;;;;9.38;6.20;;;4.10;99.90;;;;;;5098954;28;20214;-44
2022/04/04 03:19:03;;;;;;;9.65;6.82;;;4.10;99.90;;;;;;5096800;28;20198;-44
2022/04/04 03:21:30;;;;;;;9.57;7.78;;;4.00;99.90;;;;;;5096627;28;20191;-44
2022/04/04 03:23:59;;;;;;;11.18;7.80;;;4.00;99.90;;;;;;5098666;28;20675;-44
2022/04/04 03:26:29;;;;;;;8.50;6.80;;;4.00;99.90;;;;;;5099367;28;20249;-45
2022/04/04 03:28:56;;;;;;;8.23;6.65;;;4.00;99.90;;;;;;5098808;28;20191;-44
2022/04/04 03:31:22;;;;;;;8.27;7.13;;;4.00;99.90;;;;;;5098283;28;20194;-44
2022/04/04 03:33:49;;;;;;;10.25;7.85;;;4.00;99.90;;;;;;5097060;28;20673;-45
2022/04/04 03:36:15;;;;;;;8.85;6.20;;;4.00;99.90;;;;;;5098359;28;20191;-44
2022/04/04 03:38:42;;;;;;;7.50;6.53;;;3.50;99.90;;;;;;5098683;28;20573;-43
2022/04/04 03:41:10;;;;;;;9.10;6.90;;;4.00;99.90;;;;;;5098215;28;20199;-44
2022/04/04 03:43:37;;;;;;;7.80;7.00;;;4.00;99.90;;;;;;5097277;28;20191;-44
2022/04/04 03:46:03;;;;;;;10.13;5.90;;;4.00;99.90;;;;;;5096004;28;20593;-44
2022/04/04 03:48:30;;;;;;;7.65;6.95;;;3.90;99.90;;;;;;5096389;28;20190;-43
2022/04/04 03:50:57;;;;;;;13.10;7.20;;;3.90;99.90;;;;;;5096873;28;20719;-44
2022/04/04 03:53:24;;;;;;;9.50;7.47;;;3.90;99.90;;;;;;5096626;28;20206;-44
2022/04/04 03:55:51;;;;;;;9.10;7.72;;;3.90;99.90;;;;;;5096276;28;20282;-44
2022/04/04 03:58:19;;;;;;;8.25;7.35;;;3.90;99.90;;;;;;5096091;28;20564;-43
2022/04/04 04:00:45;;;;;;;6.93;6.00;;;3.90;99.90;;;;;;5096396;28;20209;-44
2022/04/04 04:03:12;;;;;;;12.50;6.65;;;3.90;99.90;;;;;;5095595;28;20209;-44
2022/04/04 04:05:39;;;;;;;13.93;6.55;;;3.90;99.90;;;;;;5094976;28;20222;-44
2022/04/04 04:08:06;;;;;;;8.23;7.43;;;3.90;99.90;;;;;;5096457;28;20218;-44
2022/04/04 04:10:33;;;;;;;7.80;7.10;;;3.90;99.90;;;;;;5095831;28;20198;-44
2022/04/04 04:13:02;;;;;;;7.65;6.95;;;3.90;99.90;;;;;;5096794;28;20812;-43
2022/04/04 04:15:30;;;;;;;8.98;6.47;;;3.90;99.90;;;;;;5094999;28;20254;-44
2022/04/04 04:17:57;;;;;;;10.18;8.32;;;3.90;99.90;;;;;;5094343;28;20244;-44
2022/04/04 04:20:25;;;;;;;7.97;6.40;;;3.00;99.90;;;;;;5095581;28;20198;-44
2022/04/04 04:22:54;;;;;;;6.30;5.65;;;3.80;99.90;;;;;;5096365;28;20199;-44
2022/04/04 04:25:22;;;;;;;8.98;6.70;;;3.50;99.90;;;;;;5096078;28;20313;-43
2022/04/04 04:27:48;;;;;;;14.07;6.80;;;3.80;99.90;;;;;;5096093;28;20211;-43
2022/04/04 04:30:16;;;;;;;7.25;6.40;;;3.80;99.90;;;;;;5096150;28;20289;-43
2022/04/04 04:32:48;;;;;;;8.43;6.00;;;3.80;99.90;;;;;;5095224;28;20186;-44
2022/04/04 04:35:15;;;;;;;9.32;7.20;;;3.80;99.90;;;;;;5094414;28;20657;-44
2022/04/04 04:37:43;;;;;;;11.48;6.60;;;3.80;99.90;;;;;;5094930;28;20199;-44
2022/04/04 04:40:10;;;;;;;10.85;7.10;;;3.80;99.90;;;;;;5093363;28;20203;-44
2022/04/04 04:42:38;;;;;;;11.48;6.70;;;3.80;99.90;;;;;;5094004;28;20567;-44
2022/04/04 04:45:06;;;;;;;7.80;6.75;;;3.80;99.90;;;;;;5094162;28;20702;-43
2022/04/04 04:47:33;;;;;;;7.15;6.45;;;3.80;99.90;;;;;;5093904;28;20261;-44
2022/04/04 04:50:02;;;;;;;8.00;7.00;;;3.60;99.90;;;;;;5093384;28;20203;-44
2022/04/04 04:52:30;;;;;;;11.52;7.13;;;3.90;99.90;;;;;;5094143;28;20749;-44
2022/04/04 04:54:57;;;;;;;7.78;6.78;;;3.80;99.90;;;;;;5093742;28;20225;-44
2022/04/04 04:57:24;;;;;;;12.30;7.28;;;3.80;99.90;;;;;;5093845;28;20191;-45
2022/04/04 04:59:51;;;;;;;9.38;6.82;;;3.80;99.90;;;;;;5092909;28;20198;-44
2022/04/04 05:02:18;;;;;;;7.70;7.00;;;3.90;99.90;;;;;;5075337;28;20198;-44
2022/04/04 05:04:45;;;;;;;9.85;6.93;;;3.90;99.90;;;;;;5093436;28;20582;-44
2022/04/04 05:07:13;;;;;;;6.80;5.82;;;3.90;99.90;;;;;;5093267;28;20213;-45
2022/04/04 05:09:40;;;;;;;6.32;5.78;;;4.00;99.90;;;;;;5093521;28;20199;-44
2022/04/04 05:12:08;;;;;;;13.40;7.68;;;4.00;99.90;;;;;;5093818;28;20194;-45
2022/04/04 05:14:36;;;;;;;7.35;6.70;;;4.00;99.90;;;;;;5093416;28;20222;-44
2022/04/04 05:17:04;;;;;;;12.73;7.10;;;4.00;99.90;;;;;;5092754;28;20193;-44
2022/04/04 05:19:31;;;;;;;9.75;7.88;;;4.10;99.90;;;;;;5093475;28;20201;-44
2022/04/04 05:21:58;;;;;;;9.93;6.70;;;4.20;99.90;;;;;;5093317;28;20218;-44
2022/04/04 05:24:27;;;;;;;10.32;7.00;;;4.30;99.90;;;;;;5106203;22;20225;-52
2022/04/04 05:26:55;;;;;;;9.98;9.05;;;4.30;99.90;;;;;;5051137;28;20224;-53
2022/04/04 05:29:22;;;;;;;9.85;8.18;;;4.40;99.90;;;;;;5050593;28;20202;-53
2022/04/04 05:31:49;;;;;;;10.13;7.45;;;4.40;99.90;;;;;;5051285;28;20231;-52
2022/04/04 05:34:15;;;;;;;7.28;6.57;;;4.30;99.90;;;;;;5050954;28;20196;-53
2022/04/04 05:36:42;;;;;;;8.80;6.57;;;4.40;99.90;;;;;;5051084;28;20211;-53
2022/04/04 05:39:08;;;;;;;13.27;8.48;;;4.70;99.90;;;;;;5050942;28;20648;-52
2022/04/04 05:41:37;;;;;;;8.95;7.60;;;4.70;99.90;;;;;;5050805;28;20196;-52
2022/04/04 05:44:06;;;;;;;8.90;7.20;;;4.60;99.90;;;;;;5050583;28;20278;-52
2022/04/04 05:46:33;;;;;;;13.40;7.82;;;4.90;99.90;;;;;;5050469;28;20223;-52
2022/04/04 05:49:00;;;;;;;8.45;6.75;;;4.70;99.90;;;;;;5050739;28;20192;-52
2022/04/04 05:51:28;;;;;;;11.93;9.10;;;4.70;99.90;;;;;;5051005;28;20234;-53
2022/04/04 05:53:55;;;;;;;12.35;7.43;;;4.80;99.90;;;;;;5050795;28;20668;-51
2022/04/04 05:56:22;;;;;;;9.35;7.90;;;4.90;99.90;;;;;;5050801;28;20219;-54
2022/04/04 05:58:50;;;;;;;8.05;7.35;;;5.10;99.90;;;;;;5050658;28;20195;-53
2022/04/04 06:01:17;;;;;;;9.05;6.55;;;5.10;99.90;;;;;;5051401;28;20199;-53
2022/04/04 06:03:43;;;;;;;10.60;8.32;;;5.20;99.90;;;;;;5050788;28;20200;-52
2022/04/04 06:06:10;;;;;;;7.68;7.03;;;5.20;99.90;;;;;;5050970;28;20222;-53
2022/04/04 06:08:37;;;;;;;8.30;6.82;;;5.20;99.90;;;;;;5032392;28;20224;-53
2022/04/04 06:11:03;;;;;;;8.57;7.68;;;5.50;99.90;;;;;;5050929;28;20203;-53
2022/04/04 06:13:30;;;;;;;7.90;7.07;;;5.20;99.90;;;;;;5050819;28;20295;-53
2022/04/04 06:15:58;;;;;;;8.70;7.70;;;5.40;99.90;;;;;;5050784;28;20223;-53
2022/04/04 06:18:24;;;;;;;11.50;8.13;;;5.50;99.90;;;;;;5050394;28;20200;-54
2022/04/04 06:20:51;;;;;;;11.20;8.07;;;5.60;99.90;;;;;;5050991;28;20196;-52
2022/04/04 06:23:18;;;;;;;9.57;8.07;;;5.70;99.90;;;;;;5050020;28;20203;-52
2022/04/04 06:25:48;;;;;;;8.48;7.60;;;5.80;99.90;;;;;;5050481;28;20226;-52
2022/04/04 06:28:15;;;;;;;12.40;8.68;;;5.90;99.90;;;;;;5051461;28;20734;-52
2022/04/04 06:30:41;;;;;;;9.27;7.95;;;5.80;99.90;;;;;;5053897;28;20215;-51
2022/04/04 06:33:09;;;;;;;10.27;8.07;;;6.00;99.90;;;;;;5054257;28;20184;-52
2022/04/04 06:35:36;;;;;;;10.15;8.05;;;6.10;99.90;;;;;;5054434;28;20458;-52
2022/04/04 06:38:03;;;;;;;9.83;8.00;;;6.00;99.90;;;;;;5054511;28;20199;-53
2022/04/04 06:40:30;;;;;;;13.65;8.07;;;6.20;99.80;;;;;;5053649;28;20447;-55
2022/04/04 06:42:58;;;;;;;12.02;9.23;;;6.20;99.60;;;;;;5054461;28;20253;-52
2022/04/04 06:45:24;;;;;;;9.80;8.83;;;6.30;99.40;;;;;;5054081;28;20230;-53
2022/04/04 06:47:52;;;;;;;14.60;9.40;;;6.40;99.40;;;;;;5054336;28;20471;-54
2022/04/04 06:50:20;;;;;;;11.88;10.68;;;6.20;99.00;;;;;;5053327;28;20469;-51
2022/04/04 06:52:47;;;;;;;10.77;9.67;;;6.30;99.00;;;;;;5054037;28;20681;-52
2022/04/04 06:55:15;;;;;;;10.27;8.90;;;6.50;98.80;;;;;;5053750;28;20907;-51
2022/04/04 06:57:42;;;;;;;11.40;8.83;;;6.60;98.60;;;;;;5053974;28;20525;-52
2022/04/04 07:00:11;;;;;;;15.40;9.80;;;6.60;98.40;;;;;;5053523;28;20436;-53
2022/04/04 07:02:38;;;;;;;16.93;9.70;;;6.70;98.20;;;;;;5054404;28;20440;-52
2022/04/04 07:05:06;;;;;;;17.50;11.60;;;6.60;97.90;;;;;;5054183;28;20486;-53
2022/04/04 07:07:34;;;;;;;15.23;10.87;;;6.70;97.90;;;;;;5053895;28;20479;-52
2022/04/04 07:10:01;;;;;;;12.30;9.23;;;6.80;97.70;;;;;;5053232;28;20427;-52
2022/04/04 07:12:29;;;;;;;11.80;10.13;;;6.80;97.50;;;;;;5053424;28;20444;-53
2022/04/04 07:14:55;;;;;;;11.63;9.37;;;6.90;97.50;;;;;;5053879;28;20476;-54
2022/04/04 07:17:22;;;;;;;14.70;10.13;;;6.90;96.80;;;;;;5054089;28;20453;-51
2022/04/04 07:19:49;;;;;;;10.37;9.37;;;6.90;96.90;;;;;;5053279;28;20417;-53
2022/04/04 07:22:16;;;;;;;13.50;11.80;;;7.00;96.70;;;;;;5053597;28;20956;-54
2022/04/04 07:24:44;;;;;;;15.33;11.63;;;7.10;96.70;;;;;;5053090;28;20472;-51
2022/04/04 07:27:10;;;;;;;15.20;11.07;;;7.10;96.30;;;;;;5051868;28;20460;-52
2022/04/04 07:29:37;;;;;;;13.73;10.73;;;7.20;96.10;;;;;;5052839;28;20436;-51
2022/04/04 07:32:05;;;;;;;12.30;10.67;;;7.30;95.80;;;;;;5053570;28;20883;-53
2022/04/04 07:34:32;;;;;;;12.33;11.10;;;7.20;95.40;;;;;;5052882;28;20467;-51
2022/04/04 07:36:58;;;;;;;18.30;11.17;;;7.30;95.50;;;;;;5052994;28;20436;-52
2022/04/04 07:39:25;;;;;;;19.00;11.10;;;7.40;95.50;;;;;;5051829;28;20637;-52
2022/04/04 07:41:54;;;;;;;11.53;10.43;;;7.50;95.10;;;;;;5052986;28;20444;-50
2022/04/04 07:44:20;;;;;;;27.00;12.07;;;7.50;94.60;;;;;;5052905;28;20440;-52
2022/04/04 07:46:47;;;;;;;11.47;10.37;;;7.50;94.20;;;;;;5052782;28;20417;-52
2022/04/04 07:49:13;;;;;;;13.23;11.83;;;7.40;94.30;;;;;;5052412;28;20498;-51
2022/04/04 07:51:40;;;;;;;13.43;12.03;;;8.60;94.90;;;;;;5052641;28;20428;-52
2022/04/04 07:54:07;;;;;;;12.70;11.20;;;7.80;94.20;;;;;;5052170;28;20817;-52
2022/04/04 07:56:33;;;;;;;17.40;11.80;;;7.90;93.80;;;;;;5052620;28;20434;-52
2022/04/04 07:59:01;;;;;;;16.93;12.67;;;7.90;93.60;;;;;;5052515;28;20631;-53
2022/04/04 08:01:28;;;;;;;15.10;12.63;;;8.20;93.40;;;;;;5052735;28;20433;-52
2022/04/04 08:03:54;;;;;;;12.50;9.93;;;8.00;92.90;;;;;;5052769;28;20495;-52
2022/04/04 08:06:21;;;;;;;19.60;11.50;;;8.20;92.50;;;;;;5052542;28;20459;-52
2022/04/04 08:08:48;;;;;;;17.90;11.67;;;8.10;92.10;;;;;;5051897;28;20488;-53
2022/04/04 08:11:14;;;;;;;14.03;11.73;;;8.20;92.00;;;;;;5052816;28;20807;-52
2022/04/04 08:13:44;;;;;;;13.53;10.70;;;8.20;92.00;;;;;;5052718;28;20869;-52
2022/04/04 08:16:12;;;;;;;13.33;11.87;;;8.20;91.90;;;;;;5051915;28;20453;-52
2022/04/04 08:18:39;;;;;;;16.63;12.80;;;8.20;91.50;;;;;;5050346;28;20465;-54
2022/04/04 08:21:05;;;;;;;27.63;16.30;;;8.30;91.40;;;;;;5052021;28;20841;-52
2022/04/04 08:23:32;;;;;;;16.50;13.23;;;8.30;91.40;;;;;;5052068;28;20921;-52
2022/04/04 08:25:59;;;;;;;12.50;11.20;;;8.40;91.30;;;;;;5052473;28;20472;-51
2022/04/04 08:28:27;;;;;;;12.07;10.87;;;8.30;91.10;;;;;;5051965;28;20852;-51
2022/04/04 08:30:55;;;;;;;11.73;10.63;;;8.60;90.80;;;;;;5051800;28;20461;-52
2022/04/04 08:33:24;;;;;;;14.07;10.77;;;8.60;90.30;;;;;;5051937;28;20785;-53
2022/04/04 08:35:52;;;;;;;12.03;10.73;;;8.50;89.90;;;;;;5051659;28;20465;-51
2022/04/04 08:38:20;;;;;;;11.63;9.50;;;8.70;90.20;;;;;;5051837;28;20508;-50
2022/04/04 08:40:48;;;;;;;12.40;10.37;;;8.70;89.00;;;;;;5051521;28;20436;-51
2022/04/04 08:43:18;;;;;;;11.77;9.40;;;8.50;87.80;;;;;;5051263;28;20440;-52
2022/04/04 08:45:45;;;;;;;11.87;10.57;;;8.80;88.70;;;;;;5051958;28;20825;-53
2022/04/04 08:48:12;;;;;;;13.97;8.60;;;8.70;87.80;;;;;;5051510;28;20810;-51
2022/04/04 08:50:40;;;;;;;14.20;11.70;;;8.90;87.30;;;;;;5051181;28;20946;-51
2022/04/04 08:53:07;;;;;;;11.87;10.67;;;8.90;86.70;;;;;;5048376;28;20853;-56
2022/04/04 08:55:35;;;;;;;15.53;10.40;;;8.90;86.60;;;;;;5031332;28;20452;-51
2022/04/04 08:58:02;;;;;;;12.83;9.17;;;8.90;86.30;;;;;;5031737;28;20438;-51
2022/04/04 09:00:30;;;;;;;10.50;9.40;;;9.00;86.90;;;;;;5031563;28;20427;-51
2022/04/04 09:02:58;;;;;;;12.90;9.33;;;9.00;85.10;;;;;;5032038;28;20807;-53
2022/04/04 09:05:29;;;;;;;12.80;10.93;;;9.00;84.50;;;;;;5031488;28;20497;-52
2022/04/04 09:08:01;;;;;;;10.53;9.47;;;9.10;84.10;;;;;;5031475;28;20471;-52
2022/04/04 09:10:33;;;;;;;11.10;9.43;;;9.10;83.30;;;;;;5031279;28;20478;-52
2022/04/04 09:13:11;;;;;;;9.57;8.57;;;9.20;83.10;;;;;;5031864;28;20485;-52
2022/04/04 09:16:01;;;;;;;10.00;9.00;;;9.10;82.70;;;;;;5049333;28;20466;-51
2022/04/04 09:18:50;;;;;;;11.07;9.97;;;9.30;82.30;;;;;;5051113;28;20438;-52
2022/04/04 09:21:31;;;;;;;15.37;9.97;;;9.20;82.40;;;;;;5045615;28;20454;-52
2022/04/04 09:24:02;;;;;;;14.33;8.60;;;9.40;81.40;;;;;;5049948;28;20434;-52
2022/04/04 09:26:34;;;;;;;12.60;8.97;;;9.50;82.00;;;;;;5051094;28;20478;-52
2022/04/04 09:29:02;;;;;;;10.13;8.33;;;9.60;81.10;;;;;;5050799;28;20474;-52
2022/04/04 09:31:29;;;;;;;9.30;8.40;;;9.70;80.40;;;;;;5051164;28;20500;-53
2022/04/04 09:34:01;;;;;;;9.70;8.70;;;9.70;79.30;;;;;;5051215;28;20449;-53
2022/04/04 09:36:28;;;;;;;10.10;9.03;;;9.70;79.50;;;;;;5051325;28;20448;-52
2022/04/04 09:39:03;;;;;;;13.07;9.57;;;9.80;79.10;;;;;;5051142;28;20439;-53
2022/04/04 09:41:31;;;;;;;12.07;8.70;;;9.80;78.50;;;;;;5051807;28;20429;-51
2022/04/04 09:43:58;;;;;;;11.07;8.13;;;9.70;77.50;;;;;;5051087;28;20445;-53
2022/04/04 09:46:31;;;;;;;12.90;9.27;;;9.80;78.00;;;;;;5050711;28;20443;-53
2022/04/04 09:49:06;;;;;;;14.53;10.63;;;9.70;77.00;;;;;;5050291;28;20474;-52
2022/04/04 09:51:38;;;;;;;13.60;9.93;;;9.70;77.60;;;;;;5051033;28;20427;-52
2022/04/04 09:54:07;;;;;;;14.00;9.73;;;9.80;77.80;;;;;;5051095;28;20450;-53
2022/04/04 09:56:34;;;;;;;10.07;8.73;;;9.80;77.10;;;;;;5050657;28;20434;-52
2022/04/04 09:59:01;;;;;;;13.70;9.77;;;9.80;77.00;;;;;;5050100;28;20435;-52
2022/04/04 10:01:30;;;;;;;12.93;10.13;;;9.70;76.60;;;;;;5050929;28;20465;-53
2022/04/04 10:03:57;;;;;;;12.50;10.40;;;9.90;76.80;;;;;;5053506;28;20927;-53
2022/04/04 10:06:28;;;;;;;13.57;8.83;;;10.10;75.40;;;;;;5054676;28;20450;-53
2022/04/04 10:08:57;;;;;;;17.43;9.27;;;10.20;74.00;;;;;;5036077;28;20484;-52
2022/04/04 10:11:26;;;;;;;11.33;8.77;;;10.20;73.60;;;;;;5054979;28;20435;-53
2022/04/04 10:13:53;;;;;;;11.20;10.20;;;10.30;73.20;;;;;;5054530;28;20442;-54
2022/04/04 10:16:22;;;;;;;10.93;9.60;;;10.40;72.50;;;;;;5054297;28;20489;-53
2022/04/04 10:18:50;;;;;;;10.23;8.90;;;10.40;72.00;;;;;;5054151;28;20517;-53
2022/04/04 10:21:17;;;;;;;21.30;9.60;;;10.40;72.00;;;;;;5054292;28;20521;-53
2022/04/04 10:23:45;;;;;;;11.77;9.03;;;10.30;71.10;;;;;;5054399;28;20446;-53
2022/04/04 10:26:14;;;;;;;13.00;9.70;;;11.70;73.20;;;;;;5053791;28;20986;-53
2022/04/04 10:28:44;;;;;;;13.37;10.60;;;10.50;70.90;;;;;;5053942;28;20514;-53
2022/04/04 10:31:13;;;;;;;17.30;12.03;;;10.70;70.40;;;;;;5054584;28;20435;-53
2022/04/04 10:33:40;;;;;;;10.40;9.30;;;10.80;70.80;;;;;;5036657;28;20453;-52
2022/04/04 10:36:08;;;;;;;10.67;9.13;;;10.90;70.10;;;;;;5054543;28;20966;-54
2022/04/04 10:38:37;;;;;;;17.70;9.10;;;10.80;68.80;;;;;;5054242;28;20430;-53
2022/04/04 10:41:07;;;;;;;9.83;8.83;;;10.70;67.40;;;;;;5054188;28;20438;-54
2022/04/04 10:43:35;;;;;;;13.93;9.27;;;10.70;68.50;;;;;;5054188;28;20488;-54
2022/04/04 10:46:08;;;;;;;14.47;9.93;;;10.70;67.80;;;;;;5054077;28;20451;-51
2022/04/04 10:48:37;;;;;;;13.93;9.67;;;10.60;66.60;;;;;;5054099;28;21000;-53
2022/04/04 10:51:12;;;;;;;10.53;9.50;;;10.60;67.10;;;;;;5053895;28;20903;-54
2022/04/04 10:53:44;;;;;;;10.53;9.53;;;10.60;67.60;;;;;;5053846;28;20439;-53
2022/04/04 10:56:12;;;;;;;13.43;10.73;;;10.70;67.70;;;;;;5054158;28;20451;-53
2022/04/04 10:58:39;;;;;;;10.47;8.73;;;10.90;68.20;;;;;;5053577;28;20489;-53
2022/04/04 11:01:14;;;;;;;18.47;9.27;;;10.90;67.50;;;;;;5053686;28;20430;-53
2022/04/04 11:03:42;;;;;;;11.87;10.60;;;10.90;67.20;;;;;;5053420;28;20466;-53
2022/04/04 11:09:11;;;;;;;10.37;8.60;;;11.10;66.50;;;;;;5053374;28;20839;-53
2022/04/04 11:11:47;;;;;;;9.47;8.60;;;11.10;65.80;;;;;;5053794;28;20480;-54
2022/04/04 11:14:14;;;;;;;12.13;7.80;;;11.10;65.70;;;;;;5052447;28;20907;-52
2022/04/04 11:17:23;;;;;;;13.10;7.73;;;11.00;64.30;;;;;;5053602;28;20503;-53
2022/04/04 11:19:52;;;;;;;13.33;7.17;;;10.80;62.60;;;;;;5052758;28;20440;-53
2022/04/04 11:22:21;;;;;;;10.63;6.77;;;10.80;62.60;;;;;;5053530;28;20435;-52
2022/04/04 11:24:53;;;;;;;8.30;7.50;;;10.70;62.60;;;;;;5054147;28;20479;-51
2022/04/04 11:27:19;;;;;;;13.50;6.77;;;10.70;62.70;;;;;;5053740;28;20445;-52
2022/04/04 11:29:47;;;;;;;10.40;6.73;;;10.80;63.10;;;;;;5052947;28;20508;-51
2022/04/04 11:32:16;;;;;;;10.03;7.10;;;10.80;62.50;;;;;;5052903;28;20552;-51
2022/04/04 11:34:45;;;;;;;9.70;7.90;;;10.80;62.40;;;;;;5053189;28;20819;-51
2022/04/04 11:37:18;;;;;;;13.57;6.47;;;10.70;62.10;;;;;;5053259;28;20442;-50
2022/04/04 11:39:47;;;;;;;11.90;7.03;;;10.70;62.40;;;;;;5053256;28;20462;-50
2022/04/04 11:42:14;;;;;;;10.53;7.20;;;10.70;62.60;;;;;;5053242;28;20518;-50
2022/04/04 11:44:48;;;;;;;8.23;7.33;;;10.80;63.10;;;;;;5053346;28;20849;-51
2022/04/04 11:47:16;;;;;;;9.53;7.20;;;10.90;62.40;;;;;;5054278;28;20456;-50
2022/04/04 11:49:46;;;;;;;13.03;10.50;;;10.90;62.20;;;;;;5053685;28;20824;-50
2022/04/04 11:52:18;;;;;;;10.53;6.13;;;11.00;62.70;;;;;;5053603;28;20437;-51
2022/04/04 11:54:46;;;;;;;16.13;6.60;;;11.20;63.50;;;;;;5052971;28;20460;-50
2022/04/04 11:57:13;;;;;;;9.50;5.90;;;11.30;63.50;;;;;;5052938;28;20577;-51
2022/04/04 11:59:42;;;;;;;14.73;6.37;;;11.30;63.50;;;;;;5052643;28;20439;-50
2022/04/04 12:02:09;;;;;;;8.10;5.70;;;11.30;63.40;;;;;;5053110;28;20457;-50
2022/04/04 12:04:37;;;;;;;9.33;6.10;;;11.20;63.30;;;;;;5053062;28;20486;-50
2022/04/04 12:07:06;;;;;;;9.53;5.40;;;11.20;64.00;;;;;;5053052;28;20517;-49
2022/04/04 12:09:34;;;;;;;10.30;5.40;;;11.20;64.40;;;;;;5052447;28;20554;-50
2022/04/04 12:12:05;;;;;;;8.97;5.00;;;11.30;64.60;;;;;;5052984;28;20441;-52
2022/04/04 12:14:33;;;;;;;8.83;5.03;;;11.30;64.50;;;;;;5052032;28;20477;-51
2022/04/04 12:17:00;;;;;;;8.20;5.40;;;11.30;64.90;;;;;;5052292;28;20923;-50
2022/04/04 12:19:28;;;;;;;8.17;4.97;;;11.30;65.00;;;;;;5052046;28;20435;-50
2022/04/04 12:21:57;;;;;;;9.27;4.90;;;11.30;64.90;;;;;;5052334;28;20533;-52
2022/04/04 12:27:12;;;;;;;15.50;7.00;;;11.00;67.40;;;;;;5033621;28;20863;-50
2022/04/04 12:29:45;;;;;;;6.97;6.27;;;10.90;69.40;;;;;;5051567;28;20486;-50
2022/04/04 12:32:17;;;;;;;9.13;5.00;;;10.90;71.20;;;;;;5051949;28;20525;-51
2022/04/04 12:34:58;;;;;;;12.60;5.67;;;10.80;72.50;;;;;;5052020;28;20459;-51
2022/04/04 12:37:39;;;;;;;6.23;4.50;;;10.70;73.90;;;;;;5051711;28;20509;-51
2022/04/04 12:40:18;;;;;;;11.23;5.20;;;10.50;74.90;;;;;;5051188;28;20780;-50
2022/04/04 12:42:47;;;;;;;11.20;5.93;;;10.30;76.40;;;;;;5051949;28;20442;-51
2022/04/04 12:45:15;;;;;;;13.13;5.63;;;10.20;77.50;;;;;;5051943;28;20473;-51
2022/04/04 12:47:58;;;;;;;11.20;6.37;;;10.20;79.40;;;;;;5051181;28;20439;-51
2022/04/04 12:50:25;;;;;;;9.93;7.20;;;10.00;81.40;;;;;;5050145;28;20459;-50
2022/04/04 12:52:56;;;;;;;11.53;6.33;;;9.80;85.80;;;;;;5050917;28;20771;-51
2022/04/04 12:55:24;;;;;;;10.33;7.70;;;9.60;86.40;;;;;;5051333;28;20482;-51
2022/04/04 12:57:51;;;;;;;13.10;7.67;;;9.50;87.20;;;;;;5051431;28;20441;-51
2022/04/04 13:00:26;;;;;;;14.10;7.27;;;9.40;88.30;;;;;;5033490;28;20981;-51
2022/04/04 13:02:53;;;;;;;10.50;7.30;;;9.20;90.30;;;;;;5051636;28;20996;-51